Quartz Hill, CA (93536)

2:10 PM PDT on May 29, 2015 (GMT -0700)
KR6C - Quartz Hill (Ave L and 50th W) | | Change Station
CLOSE
Current Station
Personal Weather Station
Location: Quartz Hill, CA
Elevation: 2450 ft
Nearby Weather Stations

Elev 2450 ft 34.65 °N, 118.22 °W | Updated 2 seconds ago

Clear
Clear
93.3 °F
Feels Like 89 °F
N
5.0
Wind Variable Wind from SSW
Gusts 14.0 mph

Today
High -- | Low -- °F
--% Chance of Precip.
Yesterday
High -- | Low -- °F
Precip. -- in
5:42 AM 7:58 PM
Waxing Gibbous, 86% visible
Pressure 29.86 in
Visibility 10.0 miles
Clouds Clear
Heat Index 89 °F
Dew Point 37 °F
Humidity 14%
Rainfall 0.00 in
Snow Depth Not available.
UV 12 out of 12
Pollen 4.00 out of 12
Air Quality Not available.
Flu Activity Sporadic
METAR KWJF 292056Z AUTO 32007KT 10SM CLR 34/M02 A2992 RMK AO2 SLP111 T03441017 58015 TSNO

More Conditions Fewer Conditions

Pressure 29.86 in
Visibility 10.0 miles
Clouds Clear
Heat Index 89 °F
Dew Point 37 °F
Humidity 14%
Rainfall 0.00 in
Snow Depth Not available.
UV 12 out of 12
Pollen 4.00 out of 12
Air Quality Not available.
Flu Activity Sporadic
METAR KWJF 292056Z AUTO 32007KT 10SM CLR 34/M02 A2992 RMK AO2 SLP111 T03441017 58015 TSNO

More Conditions Fewer Conditions

10-Day Weather Forecast

Almanac

Astronomy

May. 29, 2015 Rise Set
Actual Time
Civil Twilight
Nautical Twilight
Astronomical Twilight
Moon
Length of Visible Light
Length of Day
Tomorrow will be .
, % of the Moon is Illuminated

Today's Extremes

State Highs State Lows

Community

WunderPhotos

Upload Photos

1,825,358 photos uploaded!

WunderBlogs® & News

Nearby

Air Quality

  Air Quality AQ Index Pollutant
Not available.

Snow Depth

Station Depth Elevation

Earthquake Activity

City Distance Mag. Time & Date
Minimum magnitude displayed is 2.5.

Coastal Water Temperatures

Place Temperature

Stations

Nearby Weather Stations

Station Location Temp. Windchill Dew Point Humidity Wind Precip. Elev Updated Type